Drew Plt, Maine
Current Conditions -  °F | °C
As of 9:53 PM on Sunday 23 Nov 2014 (Local Time) from KHUL Reporting Station
Overcast Overcast  
Wind Chill: 32°   Ceiling: 4600
Heat Index: 36°   Visibility: 10mi
Dew Point: 32°   Wind: 5mph
Humidity: 86%   Direction: 190°S
Pressure: 30.13"   Gusts: NA
Location:  45.7877°N, 68.0764°W
Report Text: KHUL 240253Z AUTO 19004KT 10SM OVC046 02/00 A3013 RMK AO2 SLP208 T00220000 51013
Loading
Personal Weather Stations






























Interactive Weather Map New forecast layout! Learn more

10-Day Weather Forecast

Advertisements
Track Severe Weather on mobile